createdAt,value
2023-05-08T00:00:29.676Z,4.73
2023-05-08T00:05:50.945Z,4.78
2023-05-08T00:10:54.360Z,4.65
2023-05-08T00:15:56.491Z,4.60
2023-05-08T00:20:58.436Z,4.48
2023-05-08T00:26:01.793Z,4.53
2023-05-08T00:31:03.764Z,4.48
2023-05-08T00:36:06.301Z,4.55
2023-05-08T00:41:09.808Z,4.53
2023-05-08T00:46:11.920Z,4.61
2023-05-08T00:51:15.111Z,4.64
2023-05-08T00:56:20.433Z,4.65
2023-05-08T01:01:23.640Z,4.61
2023-05-08T01:06:25.745Z,4.58
2023-05-08T01:11:33.982Z,4.63
2023-05-08T01:16:43.812Z,4.72
2023-05-08T01:21:47.715Z,4.69
2023-05-08T01:27:28.117Z,4.61
2023-05-08T01:32:36.228Z,4.76
2023-05-08T01:37:45.900Z,4.64
2023-05-08T01:42:50.747Z,4.62
2023-05-08T01:48:02.616Z,4.73
2023-05-08T01:53:10.411Z,4.66
2023-05-08T01:58:13.468Z,4.73
2023-05-08T02:03:18.248Z,4.67
2023-05-08T02:08:22.862Z,4.63
2023-05-08T02:13:27.347Z,4.68
2023-05-08T02:18:32.101Z,4.69
2023-05-08T02:23:35.599Z,4.64
2023-05-08T02:28:38.456Z,4.73
2023-05-08T02:33:43.992Z,4.78
2023-05-08T02:38:51.292Z,4.71
2023-05-08T02:43:54.141Z,4.80
2023-05-08T02:49:01.618Z,4.70
2023-05-08T02:54:09.253Z,4.39
2023-05-08T02:59:17.570Z,4.24
2023-05-08T03:04:26.568Z,4.16
2023-05-08T03:09:38.710Z,4.30
2023-05-08T03:14:45.250Z,4.12
2023-05-08T03:19:55.071Z,4.04
2023-05-08T03:24:59.775Z,3.99
2023-05-08T03:30:04.303Z,3.96
2023-05-08T03:35:09.622Z,4.01
2023-05-08T03:40:12.409Z,3.91
2023-05-08T03:45:16.105Z,3.89
2023-05-08T03:50:19.997Z,3.88
2023-05-08T03:55:21.938Z,3.79
2023-05-08T04:00:31.896Z,3.84
2023-05-08T04:05:42.622Z,3.90
2023-05-08T04:10:50.764Z,3.92
2023-05-08T04:15:59.909Z,3.90
2023-05-08T04:21:08.306Z,3.93
2023-05-08T04:26:14.280Z,4.04
2023-05-08T04:31:19.357Z,4.23
2023-05-08T04:36:23.709Z,4.27
2023-05-08T04:41:26.366Z,4.23
2023-05-08T04:46:28.431Z,4.49
2023-05-08T04:51:31.953Z,4.57
2023-05-08T04:56:33.981Z,4.54
2023-05-08T05:01:36.339Z,4.60
2023-05-08T05:06:39.678Z,4.63
2023-05-08T05:11:41.760Z,4.74
2023-05-08T05:16:43.816Z,4.89
2023-05-08T05:21:47.207Z,4.76
2023-05-08T05:26:49.193Z,4.84
2023-05-08T05:31:51.216Z,4.70
2023-05-08T05:36:54.535Z,5.01
2023-05-08T05:41:56.514Z,4.97
2023-05-08T05:46:58.552Z,4.96
2023-05-08T05:52:01.930Z,5.08
2023-05-08T05:57:04.113Z,5.10
2023-05-08T06:02:07.926Z,5.39
2023-05-08T06:07:11.364Z,5.42
2023-05-08T06:12:13.397Z,5.76
2023-05-08T06:17:15.585Z,5.56
2023-05-08T06:22:19.532Z,5.81
2023-05-08T06:27:25.299Z,5.34
2023-05-08T06:32:27.311Z,5.33
2023-05-08T06:37:30.676Z,5.05
2023-05-08T06:42:32.679Z,5.48
2023-05-08T06:47:34.812Z,5.72
2023-05-08T06:52:38.127Z,5.55
2023-05-08T06:57:40.101Z,5.72
2023-05-08T07:02:42.081Z,5.27
2023-05-08T07:07:45.601Z,5.65
2023-05-08T07:12:47.647Z,5.92
2023-05-08T07:17:49.768Z,5.97
2023-05-08T07:22:53.276Z,5.86
2023-05-08T07:27:55.559Z,5.93
2023-05-08T07:32:57.668Z,5.71
2023-05-08T07:38:01.109Z,6.14
2023-05-08T07:43:03.672Z,6.43
2023-05-08T07:48:07.442Z,6.62
2023-05-08T07:53:10.814Z,6.58
2023-05-08T07:58:12.784Z,6.78
2023-05-08T08:03:14.832Z,6.84
2023-05-08T08:08:18.152Z,7.08
2023-05-08T08:13:20.003Z,6.74
2023-05-08T08:18:22.029Z,7.01
2023-05-08T08:23:25.500Z,6.93
2023-05-08T08:28:27.486Z,6.84
2023-05-08T08:33:29.727Z,7.24
2023-05-08T08:38:32.990Z,6.81
2023-05-08T08:43:35.100Z,7.40
2023-05-08T08:48:37.855Z,7.25
2023-05-08T08:53:45.874Z,7.06
2023-05-08T08:58:52.951Z,7.77
2023-05-08T09:03:57.427Z,8.28
2023-05-08T09:09:01.766Z,8.33
2023-05-08T09:14:03.777Z,7.81
2023-05-08T09:19:06.240Z,8.33
2023-05-08T09:24:09.917Z,7.69
2023-05-08T09:29:13.936Z,8.70
2023-05-08T09:34:24.667Z,8.70
2023-05-08T09:39:28.252Z,8.77
2023-05-08T09:44:43.769Z,8.53
2023-05-08T09:50:06.547Z,8.10
2023-05-08T09:55:11.055Z,8.12
2023-05-08T10:00:14.545Z,7.82
2023-05-08T10:05:24.686Z,8.20
2023-05-08T10:10:30.626Z,8.93
2023-05-08T10:15:34.165Z,9.46
2023-05-08T10:20:42.395Z,9.50
2023-05-08T10:25:47.304Z,9.05
2023-05-08T10:30:50.518Z,10.40
2023-05-08T10:35:53.143Z,10.57
2023-05-08T10:41:01.114Z,10.25
2023-05-08T10:46:10.915Z,10.71
2023-05-08T10:51:21.852Z,10.79
2023-05-08T10:56:29.263Z,10.02
2023-05-08T11:01:31.639Z,10.14
2023-05-08T11:06:45.531Z,10.67
2023-05-08T11:11:59.145Z,10.41
2023-05-08T11:17:05.811Z,10.55
2023-05-08T11:22:29.508Z,10.02
2023-05-08T11:27:37.745Z,10.83
2023-05-08T11:33:16.456Z,11.42
2023-05-08T11:38:21.665Z,11.26
2023-05-08T11:43:59.568Z,11.47
2023-05-08T11:49:01.808Z,11.13
2023-05-08T11:54:04.768Z,10.36
2023-05-08T11:59:09.361Z,10.58
2023-05-08T12:04:13.109Z,11.12
2023-05-08T12:09:16.570Z,10.02
2023-05-08T12:14:23.062Z,10.07
2023-05-08T12:19:25.046Z,11.32
2023-05-08T12:24:27.108Z,10.72
2023-05-08T12:29:30.508Z,10.85
2023-05-08T12:34:32.607Z,10.88
2023-05-08T12:39:36.707Z,11.25
2023-05-08T12:44:40.034Z,11.69
2023-05-08T12:49:41.972Z,10.57
2023-05-08T12:54:48.155Z,10.06
2023-05-08T13:00:09.840Z,9.64
2023-05-08T13:05:11.839Z,9.68
2023-05-08T13:10:14.180Z,9.80
2023-05-08T13:15:18.072Z,10.33
2023-05-08T13:20:20.015Z,10.27
2023-05-08T13:25:21.988Z,11.05
2023-05-08T13:30:25.972Z,10.27
2023-05-08T13:35:31.198Z,10.01
2023-05-08T13:40:33.309Z,10.79
2023-05-08T13:45:36.987Z,10.88
2023-05-08T13:50:38.958Z,10.43
2023-05-08T13:55:42.246Z,10.44
2023-05-08T14:00:45.686Z,11.32
2023-05-08T14:05:47.674Z,11.40
2023-05-08T14:10:49.653Z,10.37
2023-05-08T14:15:52.984Z,10.27
2023-05-08T14:20:57.454Z,10.98
2023-05-08T14:25:59.650Z,11.33
2023-05-08T14:31:03.063Z,10.69
2023-05-08T14:36:05.560Z,10.72
2023-05-08T14:41:07.496Z,10.46
2023-05-08T14:46:10.896Z,10.65
2023-05-08T14:51:14.025Z,9.95
2023-05-08T14:56:16.380Z,9.80
2023-05-08T15:01:19.789Z,10.37
2023-05-08T15:06:25.296Z,10.84
2023-05-08T15:11:27.368Z,10.93
2023-05-08T15:16:30.899Z,11.01
2023-05-08T15:21:32.914Z,10.73
2023-05-08T15:26:35.007Z,10.60
2023-05-08T15:31:38.346Z,9.70
2023-05-08T15:36:40.372Z,9.15
2023-05-08T15:41:42.374Z,9.50
2023-05-08T15:46:45.667Z,10.35
2023-05-08T15:51:47.641Z,10.54
2023-05-08T15:56:49.639Z,10.21
2023-05-08T16:01:53.633Z,10.09
2023-05-08T16:06:56.599Z,9.52
2023-05-08T16:11:58.615Z,9.32
2023-05-08T16:17:02.028Z,10.45
2023-05-08T16:22:04.052Z,12.11
2023-05-08T16:27:06.037Z,11.96
2023-05-08T16:32:09.416Z,12.37
2023-05-08T16:37:11.408Z,12.79
2023-05-08T16:42:13.471Z,11.18
2023-05-08T16:47:16.870Z,10.14
2023-05-08T16:52:18.840Z,9.54
2023-05-08T16:57:20.812Z,9.72
2023-05-08T17:02:24.457Z,11.34
2023-05-08T17:07:26.785Z,12.03
2023-05-08T17:12:28.816Z,11.74
2023-05-08T17:17:32.326Z,11.88
2023-05-08T17:22:34.398Z,12.09
2023-05-08T17:27:36.930Z,11.65
2023-05-08T17:32:40.289Z,11.36
2023-05-08T17:37:42.272Z,10.22
2023-05-08T17:42:44.243Z,9.84
2023-05-08T17:47:47.607Z,9.24
2023-05-08T17:52:49.624Z,8.48
2023-05-08T17:57:52.554Z,8.26
2023-05-08T18:02:56.017Z,7.91
2023-05-08T18:07:58.175Z,7.95
2023-05-08T18:13:00.206Z,7.81
2023-05-08T18:18:03.953Z,7.39
2023-05-08T18:23:05.956Z,7.23
2023-05-08T18:28:07.943Z,7.19
2023-05-08T18:33:11.267Z,7.02
2023-05-08T18:38:13.106Z,6.82
2023-05-08T18:43:15.121Z,6.76
2023-05-08T18:48:18.412Z,6.59
2023-05-08T18:53:20.414Z,6.46
2023-05-08T18:58:22.398Z,6.40
2023-05-08T19:03:26.183Z,6.51
2023-05-08T19:08:28.208Z,6.51
2023-05-08T19:13:30.270Z,6.56
2023-05-08T19:18:33.666Z,6.60
2023-05-08T19:23:35.602Z,6.57
2023-05-08T19:28:37.596Z,6.55
2023-05-08T19:33:40.976Z,6.46
2023-05-08T19:38:42.815Z,6.36
2023-05-08T19:43:44.817Z,6.34
2023-05-08T19:48:48.168Z,6.38
2023-05-08T19:53:49.990Z,6.44
2023-05-08T19:58:51.940Z,6.39
2023-05-08T20:03:56.879Z,6.32
2023-05-08T20:09:00.405Z,6.28
2023-05-08T20:14:02.677Z,6.22
2023-05-08T20:19:06.056Z,6.19
2023-05-08T20:24:08.070Z,6.06
2023-05-08T20:29:10.127Z,5.99
2023-05-08T20:34:13.508Z,6.06
2023-05-08T20:39:15.407Z,6.11
2023-05-08T20:44:19.183Z,6.17
2023-05-08T20:49:22.535Z,6.08
2023-05-08T20:54:24.905Z,5.97
2023-05-08T20:59:26.875Z,5.96
2023-05-08T21:04:30.866Z,5.93
2023-05-08T21:09:32.951Z,5.86
2023-05-08T21:14:35.536Z,5.78
2023-05-08T21:19:38.925Z,5.76
2023-05-08T21:24:42.900Z,5.76
2023-05-08T21:29:44.853Z,5.77
2023-05-08T21:34:48.172Z,5.70
2023-05-08T21:39:50.137Z,5.69
2023-05-08T21:44:54.449Z,5.65
2023-05-08T21:49:57.736Z,5.75
2023-05-08T21:54:59.694Z,5.71
2023-05-08T22:00:01.951Z,5.67
2023-05-08T22:05:07.445Z,5.64
2023-05-08T22:10:11.457Z,5.62
2023-05-08T22:15:28.479Z,5.59
2023-05-08T22:20:33.473Z,5.47
2023-05-08T22:25:35.512Z,5.40
2023-05-08T22:30:37.535Z,5.29
2023-05-08T22:35:40.849Z,5.27
2023-05-08T22:40:42.872Z,5.26
2023-05-08T22:45:44.869Z,5.13
2023-05-08T22:50:48.813Z,5.17
2023-05-08T22:55:50.721Z,5.14
2023-05-08T23:00:52.728Z,5.07
2023-05-08T23:05:56.045Z,5.03
2023-05-08T23:10:57.985Z,5.01
2023-05-08T23:15:59.988Z,4.96
2023-05-08T23:21:06.428Z,4.86
2023-05-08T23:26:08.382Z,4.95
2023-05-08T23:31:10.444Z,4.88
2023-05-08T23:36:13.771Z,4.78
2023-05-08T23:41:15.737Z,4.69
2023-05-08T23:46:17.786Z,4.72
2023-05-08T23:51:21.534Z,4.59
2023-05-08T23:56:23.793Z,4.67
